Time;durP1;ratioP1;P1;durP2;ratioP2;P2;SDS_P1;SDS_P2;PMS_P1;PMS_P2;Temp;Humidity;BMP_temperature;BMP_pressure;BME280_temperature;BME280_humidity;BME280_pressure;Samples;Min_cycle;Max_cycle;Signal;HPM_P1;HPM_P2
2023/08/23 00:01:54;;;;;;;15.93;10.07;;;;;;;-140.66;100.00;55571.53;5117427;28;20415;-71
2023/08/23 00:05:38;;;;;;;12.85;9.95;;;;;;;-140.66;100.00;55571.53;5117960;28;20020;-71
2023/08/23 00:09:23;;;;;;;15.45;10.30;;;;;;;-140.66;100.00;55571.53;5117225;28;20046;-72
2023/08/23 00:13:07;;;;;;;12.70;10.77;;;;;;;-140.66;100.00;55571.53;5117217;28;20024;-72
2023/08/23 00:16:51;;;;;;;11.60;10.38;;;;;;;-140.66;100.00;55571.53;5117829;28;20089;-71
2023/08/23 00:20:35;;;;;;;11.30;10.10;;;;;;;-140.66;100.00;55571.53;5117163;28;20038;-71
2023/08/23 00:24:20;;;;;;;12.30;10.35;;;;;;;-140.66;100.00;55571.53;5130908;27;20514;-72
2023/08/23 00:28:04;;;;;;;14.20;10.45;;;;;;;-140.66;100.00;55571.53;5117385;28;20034;-71
2023/08/23 00:31:52;;;;;;;11.57;10.35;;;;;;;-140.66;100.00;55571.53;5116820;28;20020;-72
2023/08/23 00:35:36;;;;;;;15.00;9.90;;;;;;;-140.66;100.00;55571.53;5117486;28;20038;-72
2023/08/23 00:39:21;;;;;;;12.52;10.18;;;;;;;-140.66;100.00;55571.53;5116743;28;20064;-71
2023/08/23 00:43:07;;;;;;;11.75;9.63;;;;;;;-140.66;100.00;55571.53;5116816;28;20027;-71
2023/08/23 00:46:52;;;;;;;11.60;9.85;;;;;;;-140.66;100.00;55571.53;5115479;28;20118;-72
2023/08/23 00:50:39;;;;;;;11.35;9.68;;;;;;;-140.66;100.00;55571.53;5114988;28;20471;-74
2023/08/23 00:54:23;;;;;;;12.55;10.50;;;;;;;-140.66;100.00;55571.53;5114966;28;20035;-71
2023/08/23 00:58:08;;;;;;;11.35;9.80;;;;;;;-140.66;100.00;55571.53;5115271;28;20106;-71
2023/08/23 01:01:53;;;;;;;15.27;9.80;;;;;;;-140.66;100.00;55571.53;5114866;28;20027;-72
2023/08/23 01:05:37;;;;;;;14.07;10.45;;;;;;;-140.66;100.00;55571.53;5116944;28;20031;-71
2023/08/23 01:09:51;;;;;;;13.38;10.38;;;;;;;-140.66;100.00;55571.53;5116399;28;20027;-72
2023/08/23 01:14:02;;;;;;;11.55;9.70;;;;;;;-140.66;100.00;55571.53;5114822;28;20024;-72
2023/08/23 01:17:48;;;;;;;12.38;10.25;;;;;;;-140.66;100.00;55571.53;5115063;28;20015;-72
2023/08/23 01:21:36;;;;;;;15.35;10.63;;;;;;;-140.66;100.00;55571.53;5115647;28;20035;-73
2023/08/23 01:25:20;;;;;;;14.05;10.43;;;;;;;-140.66;100.00;55571.53;5115543;28;20024;-72
2023/08/23 01:29:05;;;;;;;16.42;11.05;;;;;;;-140.66;100.00;55571.53;5114612;28;20400;-71
2023/08/23 01:33:20;;;;;;;19.52;12.02;;;;;;;-140.66;100.00;55571.53;5129457;27;20027;-72
2023/08/23 01:37:23;;;;;;;16.92;11.90;;;;;;;-140.66;100.00;55571.53;5121693;27;20036;-72
2023/08/23 01:41:08;;;;;;;19.95;12.25;;;;;;;-140.66;100.00;55571.53;5129314;27;20038;-71
2023/08/23 01:44:53;;;;;;;15.73;11.75;;;;;;;-140.66;100.00;55571.53;5128809;27;20411;-72
2023/08/23 01:48:37;;;;;;;18.20;11.73;;;;;;;-140.66;100.00;55571.53;5114640;28;20071;-72
2023/08/23 01:52:21;;;;;;;14.93;12.20;;;;;;;-140.66;100.00;55571.53;5114825;28;20457;-72
2023/08/23 01:56:06;;;;;;;13.75;11.40;;;;;;;-140.66;100.00;55571.53;5114792;28;20034;-72
2023/08/23 01:59:50;;;;;;;17.92;12.40;;;;;;;-140.66;100.00;55571.53;5115397;28;20042;-73
2023/08/23 02:03:34;;;;;;;17.25;12.40;;;;;;;-140.66;100.00;55571.53;5115086;28;20088;-72
2023/08/23 02:07:18;;;;;;;19.77;12.57;;;;;;;-140.66;100.00;55571.53;5114478;28;20473;-71
2023/08/23 02:11:03;;;;;;;18.23;12.40;;;;;;;-140.66;100.00;55571.53;5115369;28;20145;-72
2023/08/23 02:14:47;;;;;;;15.50;12.80;;;;;;;-140.66;100.00;55571.53;5114997;28;20027;-72
2023/08/23 02:18:31;;;;;;;18.98;13.32;;;;;;;-140.66;100.00;55571.53;5115356;28;20106;-71
2023/08/23 02:22:15;;;;;;;19.08;12.48;;;;;;;-140.66;100.00;55571.53;5114415;28;20085;-72
2023/08/23 02:26:00;;;;;;;18.85;13.05;;;;;;;-140.66;100.00;55571.53;5113349;28;20110;-72
2023/08/23 02:29:44;;;;;;;17.83;12.73;;;;;;;-140.66;100.00;55571.53;5115166;28;20023;-72
2023/08/23 02:33:28;;;;;;;15.85;12.20;;;;;;;-140.66;100.00;55571.53;5114847;28;20084;-71
2023/08/23 02:37:12;;;;;;;19.20;11.98;;;;;;;-140.66;100.00;55571.53;5115239;28;20028;-72
2023/08/23 02:40:57;;;;;;;16.65;12.27;;;;;;;-140.66;100.00;55571.53;5114706;28;20055;-72
2023/08/23 02:44:41;;;;;;;18.98;12.32;;;;;;;-140.66;100.00;55571.53;5114857;28;20028;-72
2023/08/23 02:48:25;;;;;;;16.50;12.35;;;;;;;-140.66;100.00;55571.53;5113836;28;20047;-71
2023/08/23 02:52:09;;;;;;;16.95;12.30;;;;;;;-140.66;100.00;55571.53;5114260;28;20102;-72
2023/08/23 02:55:53;;;;;;;18.83;12.02;;;;;;;-140.66;100.00;55571.53;5113813;28;20472;-71
2023/08/23 02:59:38;;;;;;;16.48;12.40;;;;;;;-140.66;100.00;55571.53;5114544;28;20038;-72
2023/08/23 03:03:22;;;;;;;15.32;12.75;;;;;;;-140.66;100.00;55571.53;5114130;28;20026;-71
2023/08/23 03:07:06;;;;;;;18.17;12.23;;;;;;;-140.66;100.00;55571.53;5115273;28;20027;-71
2023/08/23 03:10:51;;;;;;;14.30;12.57;;;;;;;-140.66;100.00;55571.53;5113974;28;20026;-71
2023/08/23 03:14:35;;;;;;;17.23;11.60;;;;;;;-140.66;100.00;55571.53;5127697;28;20032;-72
2023/08/23 03:18:19;;;;;;;17.00;11.82;;;;;;;-140.66;100.00;55571.53;5127211;28;20027;-71
2023/08/23 03:22:03;;;;;;;18.33;11.60;;;;;;;-140.66;100.00;55571.53;5114470;28;20039;-70
2023/08/23 03:25:48;;;;;;;14.35;12.13;;;;;;;-140.66;100.00;55571.53;5114330;28;20024;-71
2023/08/23 03:29:33;;;;;;;15.20;11.90;;;;;;;-140.66;100.00;55571.53;5127484;28;20438;-72
2023/08/23 03:33:17;;;;;;;15.80;11.80;;;;;;;-140.66;100.00;55571.53;5114003;28;20027;-70
2023/08/23 03:37:01;;;;;;;17.85;12.07;;;;;;;-140.66;100.00;55571.53;5114966;28;20057;-71
2023/08/23 03:40:45;;;;;;;13.93;11.57;;;;;;;-140.66;100.00;55571.53;5114103;28;20036;-71
2023/08/23 03:44:30;;;;;;;18.23;12.10;;;;;;;-140.66;100.00;55571.53;5113400;28;20115;-72
2023/08/23 03:48:17;;;;;;;25.25;12.38;;;;;;;-140.66;100.00;55571.53;5113412;28;20109;-72
2023/08/23 03:52:01;;;;;;;22.45;11.95;;;;;;;-140.66;100.00;55571.53;5114027;28;20344;-72
2023/08/23 03:55:50;;;;;;;19.55;11.85;;;;;;;-140.66;100.00;55571.53;5114299;28;20020;-71
2023/08/23 03:59:34;;;;;;;16.40;11.45;;;;;;;-140.66;100.00;55571.53;5112363;28;20024;-71
2023/08/23 04:03:19;;;;;;;19.48;11.48;;;;;;;-140.66;100.00;55571.53;5113580;28;20101;-71
2023/08/23 04:07:06;;;;;;;18.60;12.23;;;;;;;-140.66;100.00;55571.53;5113684;28;20024;-71
2023/08/23 04:10:51;;;;;;;19.92;12.02;;;;;;;-140.66;100.00;55571.53;5116954;28;20015;-72
2023/08/23 04:14:35;;;;;;;16.75;12.68;;;;;;;-140.66;100.00;55571.53;5116710;28;20074;-72
2023/08/23 04:18:20;;;;;;;16.48;11.82;;;;;;;-140.66;100.00;55571.53;5116813;28;20031;-72
2023/08/23 04:22:04;;;;;;;14.98;11.82;;;;;;;-140.66;100.00;55571.53;5117195;28;20526;-72
2023/08/23 04:25:48;;;;;;;26.27;11.90;;;;;;;-140.66;100.00;55571.53;5117417;28;20028;-71
2023/08/23 04:29:32;;;;;;;22.27;11.90;;;;;;;-140.66;100.00;55571.53;5116357;28;20400;-72
2023/08/23 04:33:16;;;;;;;15.82;11.75;;;;;;;-140.66;100.00;55571.53;5116757;28;20020;-72
2023/08/23 04:37:01;;;;;;;19.38;12.15;;;;;;;-140.66;100.00;55571.53;5116294;28;20126;-71
2023/08/23 04:40:45;;;;;;;21.92;12.05;;;;;;;-140.66;100.00;55571.53;5117332;28;20038;-71
2023/08/23 04:44:30;;;;;;;23.98;12.07;;;;;;;-140.66;100.00;55571.53;5117300;28;20028;-71
2023/08/23 04:48:14;;;;;;;19.23;11.82;;;;;;;-140.66;100.00;55571.53;5115922;28;20061;-71
2023/08/23 04:51:58;;;;;;;21.92;12.73;;;;;;;-140.66;100.00;55571.53;5116387;28;20106;-72
2023/08/23 04:55:43;;;;;;;21.77;12.27;;;;;;;-140.66;100.00;55571.53;5117237;28;20118;-71
2023/08/23 04:59:27;;;;;;;19.50;11.82;;;;;;;-140.66;100.00;55571.53;5115849;28;20034;-73
2023/08/23 05:03:12;;;;;;;18.83;11.80;;;;;;;-140.66;100.00;55571.53;5115758;28;20028;-72
2023/08/23 05:06:56;;;;;;;15.00;11.50;;;;;;;-140.66;100.00;55571.53;5116678;28;20110;-72
2023/08/23 05:10:40;;;;;;;18.70;12.82;;;;;;;-140.66;100.00;55571.53;5116232;28;20020;-72
2023/08/23 05:14:25;;;;;;;22.92;12.82;;;;;;;-140.66;100.00;55571.53;5116007;28;20034;-71
2023/08/23 05:18:09;;;;;;;15.73;12.07;;;;;;;-140.66;100.00;55571.53;5116073;28;20027;-72
2023/08/23 05:21:54;;;;;;;21.65;13.15;;;;;;;-140.66;100.00;55571.53;5115490;28;20038;-73
2023/08/23 05:25:38;;;;;;;20.60;13.88;;;;;;;-140.66;100.00;55571.53;5129469;27;20042;-72
2023/08/23 05:29:22;;;;;;;18.55;13.38;;;;;;;-140.66;100.00;55571.53;5115831;28;20469;-72
2023/08/23 05:33:06;;;;;;;14.23;12.48;;;;;;;-140.66;100.00;55571.53;5114599;28;20027;-71
2023/08/23 05:36:51;;;;;;;16.92;12.82;;;;;;;-140.66;100.00;55571.53;5116244;28;20030;-72
2023/08/23 05:40:35;;;;;;;18.70;12.55;;;;;;;-140.66;100.00;55571.53;5116522;28;20024;-73
2023/08/23 05:44:20;;;;;;;15.07;11.68;;;;;;;-140.66;100.00;55571.53;5115113;28;20081;-71
2023/08/23 05:48:04;;;;;;;14.43;11.23;;;;;;;-140.66;100.00;55571.53;5115392;28;20048;-72
2023/08/23 05:51:50;;;;;;;15.65;11.75;;;;;;;-140.66;100.00;55571.53;5115827;28;20028;-72
2023/08/23 05:55:34;;;;;;;16.85;11.27;;;;;;;-140.66;100.00;55571.53;5115404;28;20449;-73
2023/08/23 05:59:18;;;;;;;16.23;11.60;;;;;;;-140.66;100.00;55571.53;5128247;27;20059;-72
2023/08/23 06:03:02;;;;;;;16.83;11.65;;;;;;;-140.66;100.00;55571.53;5115657;28;20024;-72
2023/08/23 06:06:50;;;;;;;13.73;11.30;;;;;;;-140.66;100.00;55571.53;5114694;28;20028;-73
2023/08/23 06:10:36;;;;;;;17.92;11.48;;;;;;;-140.66;100.00;55571.53;5115285;28;20342;-71
2023/08/23 06:14:24;;;;;;;17.45;11.55;;;;;;;-140.66;100.00;55571.53;5128530;27;20449;-72
2023/08/23 06:18:09;;;;;;;16.77;10.88;;;;;;;-140.66;100.00;55571.53;5114944;28;20096;-71
2023/08/23 06:21:53;;;;;;;15.05;10.77;;;;;;;-140.66;100.00;55571.53;5114868;28;20362;-73
2023/08/23 06:25:37;;;;;;;26.50;12.70;;;;;;;-140.66;100.00;55571.53;5114348;28;20020;-71
2023/08/23 06:29:21;;;;;;;26.20;11.60;;;;;;;-140.66;100.00;55571.53;5115506;28;20353;-72
2023/08/23 06:33:08;;;;;;;21.27;11.80;;;;;;;-140.66;100.00;55571.53;5114729;28;20020;-72
2023/08/23 06:36:52;;;;;;;15.00;11.65;;;;;;;-140.66;100.00;55571.53;5114981;28;20107;-71
2023/08/23 06:40:37;;;;;;;18.65;11.93;;;;;;;-140.66;100.00;55571.53;5114093;28;20028;-71
2023/08/23 06:44:21;;;;;;;20.00;12.20;;;;;;;-140.66;100.00;55571.53;5114482;28;20028;-73
2023/08/23 06:48:05;;;;;;;20.85;12.68;;;;;;;-140.66;100.00;55571.53;5116030;28;20047;-72
2023/08/23 06:51:50;;;;;;;23.58;14.27;;;;;;;-140.66;100.00;55571.53;5115646;28;20023;-73
2023/08/23 06:55:41;;;;;;;26.58;13.52;;;;;;;-140.66;100.00;55571.53;5114858;28;20502;-71
2023/08/23 06:59:25;;;;;;;27.65;13.52;;;;;;;-140.66;100.00;55571.53;5113389;28;20437;-71
2023/08/23 07:03:09;;;;;;;18.77;12.82;;;;;;;-140.66;100.00;55571.53;5114613;28;20019;-72
2023/08/23 07:06:53;;;;;;;18.50;12.20;;;;;;;-140.66;100.00;55571.53;5114821;28;20119;-72
2023/08/23 07:10:37;;;;;;;16.15;12.00;;;;;;;-140.66;100.00;55571.53;5113853;28;20354;-71
2023/08/23 07:14:22;;;;;;;15.85;12.35;;;;;;;-140.66;100.00;55571.53;5114450;28;20034;-71
2023/08/23 07:18:06;;;;;;;20.08;11.85;;;;;;;-140.66;100.00;55571.53;5114022;28;20024;-72
2023/08/23 07:21:51;;;;;;;20.05;12.65;;;;;;;-140.66;100.00;55571.53;5114023;28;20341;-73
2023/08/23 07:25:35;;;;;;;13.75;11.80;;;;;;;-140.66;100.00;55571.53;5113607;28;20129;-72
2023/08/23 07:29:19;;;;;;;18.95;11.30;;;;;;;-140.66;100.00;55571.53;5127435;28;20062;-72
2023/08/23 07:33:03;;;;;;;12.07;10.48;;;;;;;-140.66;100.00;55571.53;5114159;28;20057;-72
2023/08/23 07:36:57;;;;;;;12.40;10.85;;;;;;;-140.66;100.00;55571.53;5113677;28;20102;-73
2023/08/23 07:40:42;;;;;;;14.05;10.88;;;;;;;-140.66;100.00;55571.53;5127274;28;20106;-72
2023/08/23 07:44:26;;;;;;;21.23;12.45;;;;;;;-140.66;100.00;55571.53;5117058;28;20055;-73
2023/08/23 07:48:10;;;;;;;12.38;10.75;;;;;;;-140.66;100.00;55571.53;5130654;27;20069;-72
2023/08/23 07:51:55;;;;;;;14.73;11.10;;;;;;;-140.66;100.00;55571.53;5118094;28;20120;-71
2023/08/23 07:55:39;;;;;;;17.95;12.48;;;;;;;-140.66;100.00;55571.53;5117226;28;20027;-72
2023/08/23 07:59:23;;;;;;;16.70;11.32;;;;;;;-140.66;100.00;55571.53;5117344;28;20031;-73
2023/08/23 08:03:08;;;;;;;17.83;11.20;;;;;;;-140.66;100.00;55571.53;5117908;28;20107;-72
2023/08/23 08:06:53;;;;;;;16.35;10.95;;;;;;;-140.66;100.00;55571.53;5117169;28;20024;-70
2023/08/23 08:10:37;;;;;;;16.00;10.27;;;;;;;-140.66;100.00;55571.53;5117371;28;20111;-72
2023/08/23 08:14:21;;;;;;;17.15;10.77;;;;;;;-140.66;100.00;55571.53;5117579;28;20057;-72
2023/08/23 08:18:05;;;;;;;17.63;11.00;;;;;;;-140.66;100.00;55571.53;5116966;28;20092;-72
2023/08/23 08:21:50;;;;;;;13.27;10.73;;;;;;;-140.66;100.00;55571.53;5117343;28;20039;-71
2023/08/23 08:25:35;;;;;;;16.50;10.35;;;;;;;-140.66;100.00;55571.53;5117716;28;20438;-70
2023/08/23 08:29:19;;;;;;;14.57;10.82;;;;;;;-140.66;100.00;55571.53;5117757;28;20031;-72
2023/08/23 08:33:03;;;;;;;14.98;10.90;;;;;;;-140.66;100.00;55571.53;5116797;28;20094;-73
2023/08/23 08:36:48;;;;;;;14.80;10.18;;;;;;;-140.66;100.00;55571.53;5117947;28;20038;-73
2023/08/23 08:40:32;;;;;;;12.73;10.60;;;;;;;-140.66;100.00;55571.53;5116218;28;20366;-72
2023/08/23 08:44:17;;;;;;;10.70;9.60;;;;;;;-140.66;100.00;55571.53;5116843;28;20391;-73
2023/08/23 08:48:01;;;;;;;11.02;9.90;;;;;;;-140.66;100.00;55571.53;5116218;28;20390;-72
2023/08/23 08:51:46;;;;;;;11.88;8.90;;;;;;;-140.66;100.00;55571.53;5116643;28;20109;-72
2023/08/23 08:55:35;;;;;;;17.20;10.45;;;;;;;-140.66;100.00;55571.53;5115429;28;20043;-72
2023/08/23 08:59:20;;;;;;;14.63;8.93;;;;;;;-140.66;100.00;55571.53;5115852;28;20031;-72
2023/08/23 09:03:08;;;;;;;12.10;9.15;;;;;;;-140.66;100.00;55571.53;5117515;28;20023;-72
2023/08/23 09:06:53;;;;;;;13.93;9.57;;;;;;;-140.66;100.00;55571.53;5116397;28;20441;-72
2023/08/23 09:10:38;;;;;;;14.10;9.18;;;;;;;-140.66;100.00;55571.53;5115232;28;20132;-72
2023/08/23 09:14:25;;;;;;;12.75;8.10;;;;;;;-140.66;100.00;55571.53;5116182;28;20034;-72
2023/08/23 09:18:10;;;;;;;13.57;9.15;;;;;;;-140.66;100.00;55571.53;5115216;28;20043;-71
2023/08/23 09:21:54;;;;;;;15.40;9.20;;;;;;;-140.66;100.00;55571.53;5116397;28;20128;-72
2023/08/23 09:25:38;;;;;;;9.45;8.10;;;;;;;-140.66;100.00;55571.53;5115454;28;20038;-72
2023/08/23 09:29:23;;;;;;;12.75;8.57;;;;;;;-140.66;100.00;55571.53;5116034;28;20024;-72
2023/08/23 09:33:10;;;;;;;10.77;8.73;;;;;;;-140.66;100.00;55571.53;5116283;28;20461;-72
2023/08/23 09:37:04;;;;;;;12.02;8.45;;;;;;;-140.66;100.00;55571.53;5115071;28;20031;-72
2023/08/23 09:40:48;;;;;;;21.98;9.98;;;;;;;-140.66;100.00;55571.53;5116246;28;20035;-72
2023/08/23 09:44:36;;;;;;;13.10;9.43;;;;;;;-140.66;100.00;55571.53;5115205;28;20028;-71
2023/08/23 09:48:22;;;;;;;13.38;9.35;;;;;;;-140.66;100.00;55571.53;5114718;28;20047;-71
2023/08/23 09:52:09;;;;;;;10.48;9.38;;;;;;;-140.66;100.00;55571.53;5114977;28;20023;-72
2023/08/23 09:56:02;;;;;;;14.07;9.38;;;;;;;-140.66;100.00;55571.53;5114904;28;20023;-71
2023/08/23 09:59:46;;;;;;;12.48;8.57;;;;;;;-140.66;100.00;55571.53;5114804;28;20472;-72
2023/08/23 10:03:31;;;;;;;11.93;8.73;;;;;;;-140.66;100.00;55571.53;5114865;28;20438;-71
2023/08/23 10:07:20;;;;;;;11.10;8.30;;;;;;;-140.66;100.00;55571.53;5115539;28;20338;-71
2023/08/23 10:11:04;;;;;;;11.98;8.85;;;;;;;-140.66;100.00;55571.53;5114967;28;20028;-73
2023/08/23 10:14:51;;;;;;;17.35;8.68;;;;;;;-140.66;100.00;55571.53;5114343;28;20042;-73
2023/08/23 10:18:36;;;;;;;17.60;8.15;;;;;;;-140.66;100.00;55571.53;5115082;28;20023;-73
2023/08/23 10:22:20;;;;;;;11.38;8.00;;;;;;;-140.66;100.00;55571.53;5115152;28;20059;-73
2023/08/23 10:26:20;;;;;;;25.90;8.57;;;;;;;-140.66;100.00;55571.53;5114324;28;20038;-73
2023/08/23 10:30:07;;;;;;;14.80;8.50;;;;;;;-140.66;100.00;55571.53;5114825;28;20391;-72
2023/08/23 10:33:53;;;;;;;11.02;7.88;;;;;;;-140.66;100.00;55571.53;5115107;28;20042;-72
2023/08/23 10:37:37;;;;;;;18.65;9.23;;;;;;;-140.66;100.00;55571.53;5116135;28;20438;-71
2023/08/23 10:41:25;;;;;;;10.77;8.30;;;;;;;-140.66;100.00;55571.53;5115325;28;20020;-73
2023/08/23 10:45:14;;;;;;;11.82;8.63;;;;;;;-140.66;100.00;55571.53;5117683;28;20103;-71
2023/08/23 10:48:58;;;;;;;10.82;8.18;;;;;;;-140.66;100.00;55571.53;5118596;28;20062;-70
2023/08/23 10:52:42;;;;;;;14.02;8.77;;;;;;;-140.66;100.00;55571.53;5122344;28;20024;-72
2023/08/23 10:56:28;;;;;;;10.05;8.98;;;;;;;-140.66;100.00;55571.53;5121379;28;20023;-71
2023/08/23 11:00:12;;;;;;;12.63;9.32;;;;;;;-140.66;100.00;55571.53;5121926;28;20027;-72
2023/08/23 11:03:56;;;;;;;11.40;8.82;;;;;;;-140.66;100.00;55571.53;5122368;28;20024;-72
2023/08/23 11:07:42;;;;;;;13.02;8.88;;;;;;;-140.66;100.00;55571.53;5118126;28;20055;-72
2023/08/23 11:11:30;;;;;;;12.98;9.25;;;;;;;-140.66;100.00;55571.53;5113574;28;20341;-72
2023/08/23 11:15:14;;;;;;;14.52;9.88;;;;;;;-140.66;100.00;55571.53;5113496;28;20042;-72
2023/08/23 11:19:08;;;;;;;19.70;9.75;;;;;;;-140.66;100.00;55571.53;5119937;28;20118;-72
2023/08/23 11:22:52;;;;;;;16.88;9.18;;;;;;;-140.66;100.00;55571.53;5118418;28;20106;-72
2023/08/23 11:26:36;;;;;;;15.55;8.93;;;;;;;-140.66;100.00;55571.53;5117497;28;20028;-73
2023/08/23 11:30:21;;;;;;;11.95;8.73;;;;;;;-140.66;100.00;55571.53;5116770;28;20024;-72
2023/08/23 11:34:06;;;;;;;13.38;9.13;;;;;;;-140.66;100.00;55571.53;5118286;28;20027;-72
2023/08/23 11:37:53;;;;;;;15.60;9.20;;;;;;;-140.66;100.00;55571.53;5118471;28;20028;-73
2023/08/23 11:41:38;;;;;;;12.18;9.25;;;;;;;-140.66;100.00;55571.53;5118452;28;20518;-71
2023/08/23 11:45:25;;;;;;;12.63;9.20;;;;;;;-140.66;100.00;55571.53;5130507;27;20046;-72
2023/08/23 11:49:09;;;;;;;12.45;9.25;;;;;;;-140.66;100.00;55571.53;5129996;27;20051;-72
2023/08/23 11:52:56;;;;;;;11.18;8.60;;;;;;;-140.66;100.00;55571.53;5118357;28;20023;-72
2023/08/23 11:56:44;;;;;;;16.08;9.48;;;;;;;-140.66;100.00;55571.53;5116479;28;20023;-72
2023/08/23 12:00:28;;;;;;;10.88;9.07;;;;;;;-140.66;100.00;55571.53;5117426;28;20043;-73
2023/08/23 12:04:13;;;;;;;13.77;8.98;;;;;;;-140.66;100.00;55571.53;5116830;28;20064;-73
2023/08/23 12:07:57;;;;;;;14.32;9.00;;;;;;;-140.66;100.00;55571.53;5130430;27;20027;-72
2023/08/23 12:11:42;;;;;;;14.10;9.25;;;;;;;-140.66;100.00;55571.53;5118124;28;20020;-72
2023/08/23 12:15:26;;;;;;;12.18;8.63;;;;;;;-140.66;100.00;55571.53;5117409;28;20467;-70
2023/08/23 12:19:10;;;;;;;18.02;9.05;;;;;;;-140.66;100.00;55571.53;5116860;28;20365;-71
2023/08/23 12:22:54;;;;;;;13.32;9.35;;;;;;;-140.66;100.00;55571.53;5126613;28;20104;-71
2023/08/23 12:26:38;;;;;;;12.57;9.13;;;;;;;-140.66;100.00;55571.53;5127429;28;20034;-72
2023/08/23 12:30:23;;;;;;;12.30;9.75;;;;;;;-140.66;100.00;55571.53;5125778;28;20049;-71
2023/08/23 12:34:07;;;;;;;12.27;9.52;;;;;;;-140.66;100.00;55571.53;5126260;28;20053;-71
2023/08/23 12:37:51;;;;;;;10.02;8.25;;;;;;;-140.66;100.00;55571.53;5120829;28;20020;-72
2023/08/23 12:41:35;;;;;;;11.70;8.77;;;;;;;-140.66;100.00;55571.53;5129304;27;20028;-72
2023/08/23 12:45:20;;;;;;;16.08;8.82;;;;;;;-140.66;100.00;55571.53;5129443;27;20362;-73
2023/08/23 12:49:12;;;;;;;14.18;7.97;;;;;;;-140.66;100.00;55571.53;5115577;28;20063;-72
2023/08/23 12:52:56;;;;;;;14.77;7.32;;;;;;;-140.66;100.00;55571.53;5117490;28;20114;-72
2023/08/23 12:56:40;;;;;;;10.13;7.97;;;;;;;-140.66;100.00;55571.53;5134411;28;20096;-71
2023/08/23 13:00:24;;;;;;;9.55;8.43;;;;;;;-140.66;100.00;55571.53;5133489;28;20120;-71
2023/08/23 13:04:09;;;;;;;10.38;8.38;;;;;;;-140.66;100.00;55571.53;5134277;28;20057;-71
2023/08/23 13:07:53;;;;;;;16.77;10.23;;;;;;;-140.66;100.00;55571.53;5130002;27;20061;-72
2023/08/23 13:11:37;;;;;;;15.75;8.60;;;;;;;-140.66;100.00;55571.53;5115686;28;20015;-72
2023/08/23 13:15:21;;;;;;;10.88;8.23;;;;;;;-140.66;100.00;55571.53;5116630;28;20027;-73
2023/08/23 13:19:06;;;;;;;8.15;7.25;;;;;;;-140.66;100.00;55571.53;5116580;28;20027;-72
2023/08/23 13:22:50;;;;;;;11.60;7.90;;;;;;;-140.66;100.00;55571.53;5116298;28;20346;-72
2023/08/23 13:26:34;;;;;;;14.50;8.82;;;;;;;-140.66;100.00;55571.53;5128908;27;20031;-71
2023/08/23 13:30:18;;;;;;;9.30;8.27;;;;;;;-140.66;100.00;55571.53;5115503;28;20061;-72
2023/08/23 13:34:03;;;;;;;8.95;7.90;;;;;;;-140.66;100.00;55571.53;5115704;28;20376;-73
2023/08/23 13:37:47;;;;;;;13.20;8.38;;;;;;;-140.66;100.00;55571.53;5114464;28;20051;-73
2023/08/23 13:41:31;;;;;;;10.82;8.65;;;;;;;-140.66;100.00;55571.53;5115181;28;20070;-71
2023/08/23 13:45:16;;;;;;;13.35;8.82;;;;;;;-140.66;100.00;55571.53;5115786;28;20373;-73
2023/08/23 13:49:00;;;;;;;15.15;9.00;;;;;;;-140.66;100.00;55571.53;5115644;28;20059;-72
2023/08/23 13:52:44;;;;;;;39.45;10.50;;;;;;;-140.66;100.00;55571.53;5115331;28;20110;-72
2023/08/23 13:56:28;;;;;;;22.42;9.15;;;;;;;-140.66;100.00;55571.53;5114632;28;20351;-72
2023/08/23 14:00:13;;;;;;;14.82;9.48;;;;;;;-140.66;100.00;55571.53;5114877;28;20111;-73
2023/08/23 14:03:57;;;;;;;23.40;9.52;;;;;;;-140.66;100.00;55571.53;5115641;28;20024;-72
2023/08/23 14:07:43;;;;;;;23.05;8.80;;;;;;;-140.66;100.00;55571.53;5115264;28;20030;-72
2023/08/23 14:11:30;;;;;;;21.70;10.20;;;;;;;-140.66;100.00;55571.53;5115420;28;20439;-73
2023/08/23 14:15:14;;;;;;;17.95;9.02;;;;;;;-140.66;100.00;55571.53;5115107;28;20472;-72
2023/08/23 14:18:59;;;;;;;24.92;10.52;;;;;;;-140.66;100.00;55571.53;5113907;28;20027;-71
2023/08/23 14:22:43;;;;;;;20.48;9.00;;;;;;;-140.66;100.00;55571.53;5127847;27;20036;-72
2023/08/23 14:26:27;;;;;;;16.70;9.35;;;;;;;-140.66;100.00;55571.53;5114012;28;20468;-72
2023/08/23 14:30:12;;;;;;;16.17;9.02;;;;;;;-140.66;100.00;55571.53;5114126;28;20027;-72
2023/08/23 14:33:56;;;;;;;10.38;7.90;;;;;;;-140.66;100.00;55571.53;5114967;28;20019;-71
2023/08/23 14:37:40;;;;;;;8.88;7.95;;;;;;;-140.66;100.00;55571.53;5114309;28;20088;-71
2023/08/23 14:41:24;;;;;;;13.70;8.50;;;;;;;-140.66;100.00;55571.53;5114703;28;20027;-71
2023/08/23 14:45:10;;;;;;;10.65;7.70;;;;;;;-140.66;100.00;55571.53;5114299;28;20185;-72
2023/08/23 14:48:54;;;;;;;16.02;9.45;;;;;;;-140.66;100.00;55571.53;5114534;28;20051;-72
2023/08/23 14:52:38;;;;;;;18.73;8.00;;;;;;;-140.66;100.00;55571.53;5113989;28;20110;-72
2023/08/23 14:56:23;;;;;;;13.27;7.85;;;;;;;-140.66;100.00;55571.53;5114224;28;20050;-71
2023/08/23 15:00:07;;;;;;;13.32;8.40;;;;;;;-140.66;100.00;55571.53;5114111;28;20110;-71
2023/08/23 15:03:52;;;;;;;9.00;8.10;;;;;;;-140.66;100.00;55571.53;5114581;28;20454;-73
2023/08/23 15:07:36;;;;;;;14.93;8.90;;;;;;;-140.66;100.00;55571.53;5114144;28;20030;-71
2023/08/23 15:11:20;;;;;;;19.40;8.70;;;;;;;-140.66;100.00;55571.53;5113042;28;20138;-70
2023/08/23 15:15:05;;;;;;;23.10;8.95;;;;;;;-140.66;100.00;55571.53;5114190;28;20085;-72
2023/08/23 15:18:49;;;;;;;14.70;8.10;;;;;;;-140.66;100.00;55571.53;5114333;28;20024;-71
2023/08/23 15:22:33;;;;;;;16.83;8.57;;;;;;;-140.66;100.00;55571.53;5113917;28;20085;-72
2023/08/23 15:26:17;;;;;;;17.77;8.55;;;;;;;-140.66;100.00;55571.53;5114179;28;20038;-71
2023/08/23 15:30:02;;;;;;;17.55;8.48;;;;;;;-140.66;100.00;55571.53;5113961;28;20110;-71
2023/08/23 15:33:47;;;;;;;13.50;8.65;;;;;;;-140.66;100.00;55571.53;5114515;28;20020;-72
2023/08/23 15:37:31;;;;;;;37.75;10.40;;;;;;;-140.66;100.00;55571.53;5114015;28;20031;-73
2023/08/23 15:41:15;;;;;;;16.02;8.30;;;;;;;-140.66;100.00;55571.53;5114153;28;20059;-72
2023/08/23 15:44:59;;;;;;;12.05;8.30;;;;;;;-140.66;100.00;55571.53;5114546;28;20031;-73
2023/08/23 15:48:44;;;;;;;12.15;8.32;;;;;;;-140.66;100.00;55571.53;5112906;28;20044;-71
2023/08/23 15:52:28;;;;;;;14.02;8.15;;;;;;;-140.66;100.00;55571.53;5114212;28;20047;-73
2023/08/23 15:56:12;;;;;;;15.27;8.40;;;;;;;-140.66;100.00;55571.53;5113395;28;20057;-73
2023/08/23 15:59:56;;;;;;;16.45;8.48;;;;;;;-140.66;100.00;55571.53;5114408;28;20028;-73
2023/08/23 16:03:42;;;;;;;16.52;8.55;;;;;;;-140.66;100.00;55571.53;5115751;28;20059;-72
2023/08/23 16:07:27;;;;;;;16.42;8.70;;;;;;;-140.66;100.00;55571.53;5117410;28;20028;-72
2023/08/23 16:11:11;;;;;;;22.08;8.93;;;;;;;-140.66;100.00;55571.53;5118509;28;20357;-73
2023/08/23 16:14:56;;;;;;;22.48;9.32;;;;;;;-140.66;100.00;55571.53;5116731;28;20019;-70
2023/08/23 16:18:40;;;;;;;21.83;8.88;;;;;;;-140.66;100.00;55571.53;5117549;28;20350;-71
2023/08/23 16:22:27;;;;;;;14.27;9.57;;;;;;;-140.66;100.00;55571.53;5130021;27;20046;-72
2023/08/23 16:26:11;;;;;;;14.10;8.63;;;;;;;-140.66;100.00;55571.53;5116603;28;20449;-72
2023/08/23 16:29:56;;;;;;;21.80;9.18;;;;;;;-140.66;100.00;55571.53;5116020;28;20039;-72
2023/08/23 16:33:40;;;;;;;13.77;9.55;;;;;;;-140.66;100.00;55571.53;5116494;28;20030;-72
2023/08/23 16:37:24;;;;;;;20.05;10.38;;;;;;;-140.66;100.00;55571.53;5129981;27;20030;-71
2023/08/23 16:41:08;;;;;;;24.63;10.65;;;;;;;-140.66;100.00;55571.53;5116946;28;20076;-72
2023/08/23 16:44:53;;;;;;;29.40;10.63;;;;;;;-140.66;100.00;55571.53;5116995;28;20074;-71